createdAt,value
2022-10-25T00:04:24.771Z,13.36
2022-10-25T00:09:56.462Z,13.58
2022-10-25T00:15:34.815Z,13.27
2022-10-25T00:21:06.104Z,13.62
2022-10-25T00:26:37.834Z,13.64
2022-10-25T00:32:09.853Z,13.7
2022-10-25T00:37:41.287Z,13.56
2022-10-25T00:43:12.961Z,13.48
2022-10-25T00:48:44.705Z,13.43
2022-10-25T00:54:16.600Z,13.44
2022-10-25T00:59:48.157Z,13.58
2022-10-25T01:05:19.925Z,13.41
2022-10-25T01:10:52.304Z,13.38
2022-10-25T01:16:27.698Z,13.33
2022-10-25T01:21:59.453Z,13.62
2022-10-25T01:27:31.162Z,13.69
2022-10-25T01:33:02.862Z,13.8
2022-10-25T01:38:34.597Z,13.89
2022-10-25T01:44:06.311Z,13.93
2022-10-25T01:49:38.050Z,13.78
2022-10-25T01:55:09.780Z,13.71
2022-10-25T02:00:41.544Z,13.64
2022-10-25T02:06:13.202Z,13.6
2022-10-25T02:11:44.954Z,13.58
2022-10-25T02:17:21.039Z,13.43
2022-10-25T02:22:52.734Z,13.37
2022-10-25T02:28:24.501Z,13.68
2022-10-25T02:33:56.226Z,13.73
2022-10-25T02:39:29.204Z,13.67
2022-10-25T02:50:31.394Z,13.52
2022-10-25T02:56:03.270Z,13.55
2022-10-25T03:01:34.887Z,13.67
2022-10-25T03:07:06.770Z,13.61
2022-10-25T03:12:38.295Z,13.44
2022-10-25T03:18:14.486Z,13.46
2022-10-25T03:23:46.115Z,13.44
2022-10-25T03:29:17.806Z,13.47
2022-10-25T03:34:49.546Z,13.28
2022-10-25T03:40:21.283Z,13.26
2022-10-25T03:45:53.011Z,13.19
2022-10-25T03:51:24.871Z,13.19
2022-10-25T03:56:56.677Z,13.23
2022-10-25T04:02:28.327Z,13.31
2022-10-25T04:07:59.919Z,13.28
2022-10-25T04:13:31.807Z,13.39
2022-10-25T04:19:07.878Z,13.44
2022-10-25T04:24:39.446Z,13.33
2022-10-25T04:30:11.194Z,13.39
2022-10-25T04:35:42.917Z,13.33
2022-10-25T04:41:14.851Z,13.25
2022-10-25T04:46:47.854Z,13.35
2022-10-25T04:52:18.856Z,13.23
2022-10-25T04:57:50.659Z,13.27
2022-10-25T05:03:22.471Z,13.46
2022-10-25T05:08:54.019Z,13.58
2022-10-25T05:14:25.949Z,13.46
2022-10-25T05:20:04.061Z,13.45
2022-10-25T05:25:35.585Z,13.39
2022-10-25T05:31:07.363Z,13.54
2022-10-25T05:36:39.188Z,13.35
2022-10-25T05:42:10.837Z,13.43
2022-10-25T05:47:42.565Z,13.45
2022-10-25T05:53:14.489Z,13.58
2022-10-25T05:58:46.143Z,13.44
2022-10-25T06:04:17.713Z,13.42
2022-10-25T06:09:49.420Z,13.31
2022-10-25T06:15:21.341Z,13.36
2022-10-25T06:20:57.283Z,13.28
2022-10-25T06:26:29.315Z,13.52
2022-10-25T06:32:00.838Z,13.27
2022-10-25T06:37:32.523Z,13.12
2022-10-25T06:43:04.159Z,13.36
2022-10-25T06:48:36.455Z,13.38
2022-10-25T06:54:07.584Z,13.4
2022-10-25T06:59:39.921Z,13.55
2022-10-25T07:05:11.251Z,13.43
2022-10-25T07:10:42.929Z,13.65
2022-10-25T07:16:14.694Z,13.72
2022-10-25T07:21:50.585Z,13.89
2022-10-25T07:27:22.334Z,14.13
2022-10-25T07:32:54.239Z,14.33
2022-10-25T07:38:27.872Z,14.51
2022-10-25T07:43:57.546Z,14.76
2022-10-25T07:49:29.410Z,14.74
2022-10-25T07:55:00.946Z,14.89
2022-10-25T08:00:32.834Z,15.07
2022-10-25T08:06:04.473Z,15.04
2022-10-25T08:11:36.101Z,15.16
2022-10-25T08:17:07.995Z,15.43
2022-10-25T08:22:44.503Z,15.4
2022-10-25T08:28:16.210Z,15.54
2022-10-25T08:33:47.411Z,15.85
2022-10-25T08:39:19.309Z,16.05
2022-10-25T08:44:51.141Z,16.46
2022-10-25T08:50:22.658Z,16.45
2022-10-25T08:56:05.368Z,16.55
2022-10-25T09:01:26.421Z,16.81
2022-10-25T09:06:58.057Z,17.06
2022-10-25T09:12:29.527Z,17.19
2022-10-25T09:18:01.233Z,17.2
2022-10-25T09:23:37.566Z,17.57
2022-10-25T09:29:09.010Z,17.42
2022-10-25T09:34:40.762Z,17.53
2022-10-25T09:40:12.902Z,17.63
2022-10-25T09:45:44.364Z,17.7
2022-10-25T09:51:15.971Z,17.86
2022-10-25T09:56:47.962Z,17.94
2022-10-25T10:02:19.570Z,17.98
2022-10-25T10:07:51.128Z,18.16
2022-10-25T10:13:22.873Z,18.11
2022-10-25T10:18:54.646Z,18.06
2022-10-25T10:24:30.868Z,18.34
2022-10-25T10:30:02.398Z,18.75
2022-10-25T10:35:34.284Z,18.69
2022-10-25T10:41:06.074Z,18.85
2022-10-25T10:46:37.582Z,19.14
2022-10-25T10:52:09.318Z,19.39
2022-10-25T10:57:41.201Z,19.31
2022-10-25T11:03:12.947Z,19.61
2022-10-25T11:08:44.676Z,19.12
2022-10-25T11:14:16.178Z,19.25
2022-10-25T11:19:47.911Z,18.75
2022-10-25T11:25:24.383Z,18.36
2022-10-25T11:30:55.886Z,18.31
2022-10-25T11:36:27.666Z,18.53
2022-10-25T11:41:59.783Z,18.59
2022-10-25T11:47:31.287Z,18.48
2022-10-25T11:53:02.874Z,18.38
2022-10-25T11:58:34.346Z,18.49
2022-10-25T12:04:06.082Z,18.65
2022-10-25T12:09:37.951Z,18.8
2022-10-25T12:15:09.734Z,18.54
2022-10-25T12:20:41.463Z,18.75
2022-10-25T12:26:19.380Z,19.21
2022-10-25T12:31:51.101Z,19.3
2022-10-25T12:37:22.825Z,19.32
2022-10-25T12:42:54.725Z,19.05
2022-10-25T12:48:26.833Z,19.26
2022-10-25T12:53:58.038Z,19.27
2022-10-25T12:59:29.696Z,19.33
2022-10-25T13:05:01.890Z,19.17
2022-10-25T13:10:33.187Z,19.08
2022-10-25T13:16:05.213Z,19.72
2022-10-25T13:21:36.804Z,19.34
2022-10-25T13:27:12.947Z,19.52
2022-10-25T13:32:44.787Z,19.69
2022-10-25T13:38:16.452Z,19.72
2022-10-25T13:43:47.960Z,19.01
2022-10-25T13:49:19.629Z,19.35
2022-10-25T13:54:51.401Z,19.61
2022-10-25T14:00:23.093Z,19.77
2022-10-25T14:05:55.044Z,19.7
2022-10-25T14:11:26.962Z,19.75
2022-10-25T14:16:58.319Z,19.65
2022-10-25T14:22:31.807Z,19.81
2022-10-25T14:28:06.143Z,19.71
2022-10-25T14:33:39.508Z,19.95
2022-10-25T14:39:09.742Z,19.77
2022-10-25T14:44:41.496Z,19.82
2022-10-25T14:50:13.064Z,19.96
2022-10-25T14:55:45.567Z,19.93
2022-10-25T15:01:17.535Z,19.7
2022-10-25T15:06:49.004Z,19.8
2022-10-25T15:12:20.769Z,19.75
2022-10-25T15:17:52.482Z,19.49
2022-10-25T15:23:24.337Z,19.37
2022-10-25T15:29:00.478Z,19.41
2022-10-25T15:34:32.122Z,19.37
2022-10-25T15:40:03.746Z,19.17
2022-10-25T15:45:35.465Z,19.04
2022-10-25T15:51:07.218Z,18.83
2022-10-25T15:56:38.931Z,18.67
2022-10-25T16:02:10.743Z,18.51
2022-10-25T16:07:42.526Z,18.32
2022-10-25T16:13:14.154Z,18.16
2022-10-25T16:18:45.839Z,18.03
2022-10-25T16:24:17.850Z,17.84
2022-10-25T16:29:53.882Z,17.72
2022-10-25T16:35:25.561Z,17.55
2022-10-25T16:40:57.121Z,17.51
2022-10-25T16:46:28.837Z,17.38
2022-10-25T16:52:00.545Z,17.38
2022-10-25T16:57:33.126Z,17.14
2022-10-25T17:03:05.063Z,17.15
2022-10-25T17:08:37.419Z,17.15
2022-10-25T17:14:08.303Z,16.99
2022-10-25T17:19:40.028Z,16.95
2022-10-25T17:25:12.136Z,16.89
2022-10-25T17:30:47.858Z,16.85
2022-10-25T17:36:19.794Z,16.77
2022-10-25T17:41:52.010Z,16.62
2022-10-25T17:47:23.637Z,16.6
2022-10-25T17:52:54.723Z,16.59
2022-10-25T17:58:26.444Z,16.56
2022-10-25T18:03:58.199Z,16.55
2022-10-25T18:09:30.153Z,16.38
2022-10-25T18:15:01.651Z,16.45
2022-10-25T18:20:33.767Z,16.47
2022-10-25T18:26:05.102Z,16.37
2022-10-25T18:31:41.287Z,16.38
2022-10-25T18:37:12.933Z,16.42
2022-10-25T18:42:44.645Z,16.46
2022-10-25T18:48:16.357Z,16.49
2022-10-25T18:53:48.113Z,16.36
2022-10-25T18:59:19.898Z,16.35
2022-10-25T19:04:51.593Z,16.16
2022-10-25T19:10:23.425Z,16.19
2022-10-25T19:15:55.186Z,16.08
2022-10-25T19:21:26.957Z,16.2
2022-10-25T19:26:58.649Z,16.15
2022-10-25T19:32:34.787Z,16.11
2022-10-25T19:38:07.148Z,16.07
2022-10-25T19:43:38.794Z,16.04
2022-10-25T19:49:10.403Z,16.03
2022-10-25T19:54:42.258Z,15.96
2022-10-25T20:00:14.031Z,15.96
2022-10-25T20:05:45.566Z,15.92
2022-10-25T20:11:17.490Z,15.8
2022-10-25T20:16:49.049Z,15.78
2022-10-25T20:22:20.869Z,15.79
2022-10-25T20:27:52.766Z,15.83
2022-10-25T20:33:30.593Z,15.9
2022-10-25T20:39:02.357Z,15.89
2022-10-25T20:44:34.054Z,15.79
2022-10-25T20:50:05.792Z,15.99
2022-10-25T20:55:37.873Z,15.97
2022-10-25T21:01:09.919Z,16.02
2022-10-25T21:06:42.030Z,16.02
2022-10-25T21:12:13.323Z,15.93
2022-10-25T21:17:45.104Z,15.79
2022-10-25T21:23:16.795Z,15.83
2022-10-25T21:28:49.002Z,15.59
2022-10-25T21:34:24.620Z,15.74
2022-10-25T21:39:56.280Z,15.58
2022-10-25T21:45:28.051Z,15.57
2022-10-25T21:50:59.879Z,15.66
2022-10-25T21:56:31.848Z,15.6
2022-10-25T22:02:03.312Z,15.37
2022-10-25T22:07:34.928Z,15.27
2022-10-25T22:13:06.690Z,15.28
2022-10-25T22:18:38.598Z,15.35
2022-10-25T22:24:10.470Z,15.3
2022-10-25T22:29:42.066Z,15.37
2022-10-25T22:35:18.082Z,15.42
2022-10-25T22:40:50.026Z,15.45
2022-10-25T22:46:21.354Z,15.51
2022-10-25T22:51:53.106Z,15.45
2022-10-25T22:57:24.806Z,15.51
2022-10-25T23:02:56.983Z,15.54
2022-10-25T23:08:28.278Z,15.64
2022-10-25T23:13:59.985Z,15.53
2022-10-25T23:19:31.740Z,15.43
2022-10-25T23:25:03.421Z,15.55
2022-10-25T23:30:35.159Z,15.53
2022-10-25T23:36:11.415Z,15.6
2022-10-25T23:41:43.006Z,15.67
2022-10-25T23:47:15.377Z,15.69
2022-10-25T23:52:46.581Z,15.65
2022-10-25T23:58:18.301Z,15.66
